createdAt,value
2023-03-31T00:01:13.284Z,99116.78
2023-03-31T00:03:44.164Z,99111.41
2023-03-31T00:06:18.354Z,99113.38
2023-03-31T00:08:51.896Z,99115.00
2023-03-31T00:11:20.943Z,99105.31
2023-03-31T00:13:48.597Z,99113.31
2023-03-31T00:16:16.377Z,99115.06
2023-03-31T00:18:47.656Z,99095.56
2023-03-31T00:21:25.421Z,99113.28
2023-03-31T00:23:59.451Z,99114.97
2023-03-31T00:26:28.083Z,99108.69
2023-03-31T00:28:56.021Z,99119.50
2023-03-31T00:31:24.405Z,99109.69
2023-03-31T00:33:51.575Z,99109.75
2023-03-31T00:36:21.853Z,99108.94
2023-03-31T00:38:49.564Z,99120.09
2023-03-31T00:41:16.729Z,99116.75
2023-03-31T00:44:08.585Z,99115.63
2023-03-31T00:46:52.476Z,99114.03
2023-03-31T00:49:34.078Z,99115.88
2023-03-31T00:52:24.571Z,99108.81
2023-03-31T00:54:58.060Z,99111.59
2023-03-31T00:57:28.713Z,99108.75
2023-03-31T01:00:14.690Z,99104.47
2023-03-31T01:02:58.218Z,99107.91
2023-03-31T01:05:34.675Z,99106.97
2023-03-31T01:08:02.549Z,99106.81
2023-03-31T01:10:33.364Z,99104.03
2023-03-31T01:13:00.578Z,99100.91
2023-03-31T01:17:58.487Z,99104.16
2023-03-31T01:20:57.014Z,99105.19
2023-03-31T01:23:57.362Z,99095.56
2023-03-31T01:27:07.015Z,99102.63
2023-03-31T01:30:16.883Z,99094.53
2023-03-31T01:33:08.564Z,99093.78
2023-03-31T01:35:53.759Z,99092.91
2023-03-31T01:38:48.568Z,99092.75
2023-03-31T01:42:04.056Z,99091.78
2023-03-31T01:45:08.173Z,99100.84
2023-03-31T01:47:54.558Z,99099.00
2023-03-31T01:50:52.194Z,99105.88
2023-03-31T01:53:56.822Z,99104.25
2023-03-31T01:56:37.351Z,99106.59
2023-03-31T01:59:39.706Z,99104.16
2023-03-31T02:02:20.367Z,99110.47
2023-03-31T02:05:01.659Z,99100.75
2023-03-31T02:07:37.783Z,99102.44
2023-03-31T02:10:09.382Z,99101.44
2023-03-31T02:12:41.143Z,99109.28
2023-03-31T02:15:14.669Z,99101.38
2023-03-31T02:17:45.926Z,99109.22
2023-03-31T02:20:18.341Z,99103.97
2023-03-31T02:22:53.134Z,99117.84
2023-03-31T02:25:25.323Z,99119.66
2023-03-31T02:28:02.352Z,99114.44
2023-03-31T02:30:45.650Z,99116.94
2023-03-31T02:33:12.798Z,99111.78
2023-03-31T02:35:39.937Z,99108.31
2023-03-31T02:38:08.634Z,99102.66
2023-03-31T02:40:35.733Z,99112.78
2023-03-31T02:43:02.997Z,99103.16
2023-03-31T02:45:50.877Z,99108.50
2023-03-31T02:48:25.035Z,99097.69
2023-03-31T02:51:42.332Z,99104.66
2023-03-31T02:55:01.247Z,99118.22
2023-03-31T02:57:52.633Z,99111.22
2023-03-31T03:00:31.696Z,99120.66
2023-03-31T03:03:07.768Z,99116.00
2023-03-31T03:06:32.407Z,99111.00
2023-03-31T03:09:10.581Z,99109.84
2023-03-31T03:12:17.503Z,99119.72
2023-03-31T03:15:11.246Z,99127.81
2023-03-31T03:17:44.413Z,99120.56
2023-03-31T03:20:14.271Z,99118.78
2023-03-31T03:22:41.920Z,99133.59
2023-03-31T03:25:12.950Z,99130.13
2023-03-31T03:27:40.877Z,99110.63
2023-03-31T03:30:11.815Z,99133.59
2023-03-31T03:32:39.284Z,99130.72
2023-03-31T03:35:07.563Z,99132.66
2023-03-31T03:37:35.462Z,99129.88
2023-03-31T03:40:03.677Z,99135.16
2023-03-31T03:42:30.819Z,99137.09
2023-03-31T03:44:57.992Z,99134.28
2023-03-31T03:47:25.097Z,99136.94
2023-03-31T03:49:52.188Z,99138.56
2023-03-31T03:52:19.347Z,99132.44
2023-03-31T03:54:46.341Z,99145.53
2023-03-31T03:57:16.790Z,99145.72
2023-03-31T03:59:44.003Z,99147.47
2023-03-31T04:02:11.250Z,99146.41
2023-03-31T04:04:38.401Z,99140.22
2023-03-31T04:07:05.859Z,99128.47
2023-03-31T04:09:33.028Z,99139.88
2023-03-31T04:12:00.776Z,99149.72
2023-03-31T04:14:27.919Z,99145.00
2023-03-31T04:16:56.560Z,99145.13
2023-03-31T04:19:26.119Z,99147.00
2023-03-31T04:21:59.171Z,99137.09
2023-03-31T04:24:30.773Z,99139.66
2023-03-31T04:27:00.262Z,99139.66
2023-03-31T04:29:27.288Z,99140.19
2023-03-31T04:31:59.189Z,99137.81
2023-03-31T04:34:35.177Z,99135.13
2023-03-31T04:37:03.058Z,99133.16
2023-03-31T04:39:31.162Z,99118.97
2023-03-31T04:42:01.394Z,99137.72
2023-03-31T04:44:29.262Z,99134.31
2023-03-31T04:46:56.915Z,99130.50
2023-03-31T04:49:24.004Z,99133.66
2023-03-31T04:51:51.347Z,99128.31
2023-03-31T04:54:18.963Z,99130.25
2023-03-31T04:56:46.991Z,99127.00
2023-03-31T04:59:14.204Z,99122.59
2023-03-31T05:01:45.681Z,99119.63
2023-03-31T05:04:13.042Z,99124.84
2023-03-31T05:06:40.370Z,99121.25
2023-03-31T05:09:09.779Z,99125.66
2023-03-31T05:11:38.388Z,99120.47
2023-03-31T05:14:05.821Z,99117.31
2023-03-31T05:16:33.014Z,99113.53
2023-03-31T05:19:00.720Z,99125.22
2023-03-31T05:21:30.508Z,99119.03
2023-03-31T05:23:58.249Z,99118.38
2023-03-31T05:26:26.124Z,99106.94
2023-03-31T05:28:54.233Z,99109.78
2023-03-31T05:31:21.437Z,99112.31
2023-03-31T05:33:48.513Z,99096.47
2023-03-31T05:36:17.671Z,99102.81
2023-03-31T05:38:44.809Z,99099.47
2023-03-31T05:41:12.146Z,99105.63
2023-03-31T05:43:39.816Z,99099.34
2023-03-31T05:46:08.151Z,99102.25
2023-03-31T05:48:37.592Z,99095.31
2023-03-31T05:51:04.788Z,99102.97
2023-03-31T05:53:31.902Z,99096.09
2023-03-31T05:56:02.035Z,99103.41
2023-03-31T05:58:29.899Z,99092.69
2023-03-31T06:01:11.333Z,99102.44
2023-03-31T06:03:41.851Z,99101.53
2023-03-31T06:06:13.100Z,99099.03
2023-03-31T06:08:41.018Z,99092.75
2023-03-31T06:11:11.395Z,99105.31
2023-03-31T06:13:39.744Z,99095.25
2023-03-31T06:16:07.868Z,99091.97
2023-03-31T06:18:36.525Z,99098.25
2023-03-31T06:21:04.495Z,99088.75
2023-03-31T06:23:32.873Z,99102.56
2023-03-31T06:26:08.261Z,99098.19
2023-03-31T06:28:36.764Z,99101.03
2023-03-31T06:31:33.199Z,99090.47
2023-03-31T06:34:00.226Z,99108.72
2023-03-31T06:36:27.239Z,99102.56
2023-03-31T06:38:54.290Z,99105.38
2023-03-31T06:41:22.536Z,99098.97
2023-03-31T06:43:50.078Z,99096.53
2023-03-31T06:46:17.272Z,99101.53
2023-03-31T06:48:44.444Z,99092.00
2023-03-31T06:51:12.315Z,99092.06
2023-03-31T06:53:39.373Z,99087.69
2023-03-31T06:56:07.481Z,99096.81
2023-03-31T06:58:35.115Z,99084.81
2023-03-31T07:01:06.598Z,99084.16
2023-03-31T07:03:34.466Z,99087.72
2023-03-31T07:06:01.789Z,99093.00
2023-03-31T07:08:29.136Z,99099.16
2023-03-31T07:10:59.123Z,99091.19
2023-03-31T07:13:27.657Z,99094.75
2023-03-31T07:15:55.435Z,99102.84
2023-03-31T07:18:26.320Z,99104.63
2023-03-31T07:20:53.702Z,99102.94
2023-03-31T07:23:21.268Z,99106.78
2023-03-31T07:25:49.051Z,99102.34
2023-03-31T07:28:16.411Z,99100.59
2023-03-31T07:30:43.568Z,99099.66
2023-03-31T07:33:11.148Z,99091.69
2023-03-31T07:35:40.988Z,99097.94
2023-03-31T07:38:11.390Z,99089.94
2023-03-31T07:40:40.011Z,99095.25
2023-03-31T07:43:07.813Z,99100.53
2023-03-31T07:45:35.798Z,99093.34
2023-03-31T07:48:03.162Z,99097.06
2023-03-31T07:50:30.455Z,99096.19
2023-03-31T07:52:57.575Z,99086.47
2023-03-31T07:55:26.433Z,99076.72
2023-03-31T07:57:53.614Z,99082.03
2023-03-31T08:00:21.413Z,99080.25
2023-03-31T08:02:48.904Z,99076.69
2023-03-31T08:05:19.265Z,99062.59
2023-03-31T08:07:49.362Z,99068.75
2023-03-31T08:10:26.861Z,99070.47
2023-03-31T08:12:54.289Z,99067.78
2023-03-31T08:15:21.547Z,99075.72
2023-03-31T08:17:48.658Z,99062.47
2023-03-31T08:20:15.843Z,99061.59
2023-03-31T08:22:42.984Z,99056.34
2023-03-31T08:25:11.307Z,99066.84
2023-03-31T08:27:40.843Z,99066.13
2023-03-31T08:30:13.812Z,99050.16
2023-03-31T08:32:40.949Z,99046.69
2023-03-31T08:35:09.764Z,99050.19
2023-03-31T08:37:38.104Z,99031.59
2023-03-31T08:40:12.328Z,99040.38
2023-03-31T08:42:57.979Z,99023.69
2023-03-31T08:45:36.467Z,99023.66
2023-03-31T08:48:14.268Z,99022.78
2023-03-31T08:50:51.017Z,99030.75
2023-03-31T08:53:31.247Z,99022.78
2023-03-31T08:55:59.593Z,99026.22
2023-03-31T08:58:49.299Z,99024.34
2023-03-31T09:01:55.244Z,99024.28
2023-03-31T09:05:25.344Z,99020.59
2023-03-31T09:08:17.755Z,99020.41
2023-03-31T09:11:08.749Z,99011.63
2023-03-31T09:13:57.229Z,99014.50
2023-03-31T09:17:01.527Z,99007.59
2023-03-31T09:19:44.939Z,99013.69
2023-03-31T09:22:25.553Z,99019.09
2023-03-31T09:25:00.498Z,99001.41
2023-03-31T09:27:33.034Z,99003.09
2023-03-31T09:30:15.684Z,99001.44
2023-03-31T09:32:43.764Z,99007.47
2023-03-31T09:35:25.971Z,99001.91
2023-03-31T09:37:54.281Z,99002.28
2023-03-31T09:40:25.914Z,99001.03
2023-03-31T09:43:02.155Z,98999.38
2023-03-31T09:45:30.841Z,99002.41
2023-03-31T09:48:02.937Z,98993.50
2023-03-31T09:50:33.121Z,98999.09
2023-03-31T09:53:01.944Z,98999.94
2023-03-31T09:55:47.636Z,99000.56
2023-03-31T09:58:17.056Z,98993.22
2023-03-31T10:01:09.239Z,98992.44
2023-03-31T10:03:48.479Z,98987.47
2023-03-31T10:06:17.605Z,98985.31
2023-03-31T10:09:02.485Z,98973.91
2023-03-31T10:11:29.789Z,98980.13
2023-03-31T10:14:14.451Z,98976.84
2023-03-31T10:16:56.453Z,98966.44
2023-03-31T10:19:31.465Z,98961.47
2023-03-31T10:22:03.682Z,98960.03
2023-03-31T10:24:41.148Z,98950.47
2023-03-31T10:27:28.237Z,98947.13
2023-03-31T10:30:02.371Z,98946.47
2023-03-31T10:32:42.990Z,98946.03
2023-03-31T10:35:34.069Z,98940.75
2023-03-31T10:38:08.774Z,98939.72
2023-03-31T10:40:36.835Z,98931.66
2023-03-31T10:43:09.919Z,98929.88
2023-03-31T10:45:47.374Z,98925.91
2023-03-31T10:48:27.060Z,98917.97
2023-03-31T10:50:59.425Z,98924.47
2023-03-31T10:53:26.733Z,98919.78
2023-03-31T10:56:38.062Z,98922.25
2023-03-31T11:00:19.114Z,98918.84
2023-03-31T11:03:10.613Z,98922.03
2023-03-31T11:06:12.065Z,98915.03
2023-03-31T11:08:56.449Z,98912.63
2023-03-31T11:12:08.541Z,98919.84
2023-03-31T11:14:47.425Z,98914.03
2023-03-31T11:17:54.845Z,98898.81
2023-03-31T11:20:48.604Z,98897.56
2023-03-31T11:24:17.967Z,98886.72
2023-03-31T11:27:16.687Z,98889.78
2023-03-31T11:30:16.777Z,98889.00
2023-03-31T11:32:54.429Z,98876.28
2023-03-31T11:36:04.483Z,98875.09
2023-03-31T11:38:55.958Z,98891.84
2023-03-31T11:42:01.301Z,98879.69
2023-03-31T11:44:41.346Z,98879.72
2023-03-31T11:47:18.740Z,98877.72
2023-03-31T11:49:55.446Z,98873.63
2023-03-31T11:52:34.901Z,98867.09
2023-03-31T11:55:23.464Z,98874.78
2023-03-31T11:58:04.950Z,98862.06
2023-03-31T12:01:23.185Z,98860.28
2023-03-31T12:04:13.308Z,98839.03
2023-03-31T12:06:46.641Z,98834.44
2023-03-31T12:09:48.290Z,98838.75
2023-03-31T12:12:27.380Z,98835.97
2023-03-31T12:15:08.701Z,98837.56
2023-03-31T12:17:37.851Z,98809.72
2023-03-31T12:20:14.360Z,98822.06
2023-03-31T12:22:45.843Z,98819.06
2023-03-31T12:25:26.709Z,98818.75
2023-03-31T12:27:54.861Z,98802.06
2023-03-31T12:30:39.397Z,98819.34
2023-03-31T12:33:29.207Z,98816.44
2023-03-31T12:36:41.390Z,98807.88
2023-03-31T12:39:36.209Z,98808.06
2023-03-31T12:42:33.498Z,98792.47
2023-03-31T12:45:14.257Z,98799.16
2023-03-31T12:48:10.474Z,98812.66
2023-03-31T12:51:03.716Z,98801.50
2023-03-31T12:53:44.149Z,98799.84
2023-03-31T12:56:11.237Z,98779.78
2023-03-31T12:58:42.826Z,98788.28
2023-03-31T13:01:23.630Z,98778.16
2023-03-31T13:04:18.125Z,98771.00
2023-03-31T13:06:57.762Z,98770.56
2023-03-31T13:09:33.798Z,98768.13
2023-03-31T13:12:22.261Z,98760.56
2023-03-31T13:14:54.451Z,98759.19
2023-03-31T13:17:25.642Z,98754.53
2023-03-31T13:19:54.456Z,98754.66
2023-03-31T13:22:40.924Z,98745.59
2023-03-31T13:25:29.649Z,98740.13
2023-03-31T13:28:04.431Z,98741.16
2023-03-31T13:30:40.352Z,98735.94
2023-03-31T13:33:31.581Z,98747.97
2023-03-31T13:36:29.356Z,98747.75
2023-03-31T13:39:20.792Z,98738.16
2023-03-31T13:41:52.912Z,98734.03
2023-03-31T13:44:51.117Z,98732.94
2023-03-31T13:47:39.335Z,98728.16
2023-03-31T13:50:32.717Z,98744.44
2023-03-31T13:53:16.799Z,98722.25
2023-03-31T13:56:14.433Z,98708.97
2023-03-31T13:59:31.183Z,98719.84
2023-03-31T14:02:35.535Z,98714.38
2023-03-31T14:05:30.910Z,98701.88
2023-03-31T14:08:18.734Z,98708.41
2023-03-31T14:10:45.901Z,98708.19
2023-03-31T14:13:19.416Z,98695.34
2023-03-31T14:15:55.537Z,98692.53
2023-03-31T14:18:30.162Z,98692.16
2023-03-31T14:21:41.407Z,98682.38
2023-03-31T14:24:36.952Z,98669.28
2023-03-31T14:27:40.731Z,98679.34
2023-03-31T14:31:03.034Z,98681.19
2023-03-31T14:34:20.667Z,98671.81
2023-03-31T14:37:08.415Z,98674.03
2023-03-31T14:39:44.654Z,98674.75
2023-03-31T14:42:40.643Z,98670.88
2023-03-31T14:45:31.426Z,98661.53
2023-03-31T14:48:14.159Z,98667.84
2023-03-31T14:50:46.887Z,98645.09
2023-03-31T14:53:24.024Z,98651.38
2023-03-31T14:55:58.998Z,98651.38
2023-03-31T14:58:40.244Z,98651.28
2023-03-31T15:01:14.879Z,98656.09
2023-03-31T15:03:42.920Z,98648.09
2023-03-31T15:06:12.996Z,98636.44
2023-03-31T15:08:40.697Z,98648.09
2023-03-31T15:11:19.558Z,98641.88
2023-03-31T15:14:04.483Z,98638.28
2023-03-31T15:16:46.066Z,98639.44
2023-03-31T15:19:35.916Z,98638.81
2023-03-31T15:22:14.242Z,98634.53
2023-03-31T15:24:41.336Z,98638.75
2023-03-31T15:27:29.838Z,98625.13
2023-03-31T15:30:04.715Z,98624.31
2023-03-31T15:32:39.250Z,98618.53
2023-03-31T15:35:21.796Z,98633.97
2023-03-31T15:37:54.309Z,98636.69
2023-03-31T15:40:27.448Z,98647.03
2023-03-31T15:45:50.169Z,98634.13
2023-03-31T15:48:28.776Z,98631.59
2023-03-31T15:51:07.744Z,98633.50
2023-03-31T15:53:45.453Z,98629.97
2023-03-31T15:56:32.337Z,98622.84
2023-03-31T15:59:05.419Z,98619.44
2023-03-31T16:02:01.321Z,98608.06
2023-03-31T16:04:33.186Z,98601.13
2023-03-31T16:07:14.514Z,98601.16
2023-03-31T16:10:23.195Z,98600.38
2023-03-31T16:12:56.419Z,98601.13
2023-03-31T16:15:48.322Z,98598.69
2023-03-31T16:18:36.521Z,98594.28
2023-03-31T16:21:07.415Z,98591.63
2023-03-31T16:23:40.794Z,98587.19
2023-03-31T16:26:08.732Z,98579.28
2023-03-31T16:28:37.991Z,98579.34
2023-03-31T16:31:26.189Z,98571.38
2023-03-31T16:33:57.040Z,98564.41
2023-03-31T16:36:24.154Z,98570.59
2023-03-31T16:38:55.774Z,98575.00
2023-03-31T16:41:27.192Z,98575.97
2023-03-31T16:43:54.886Z,98575.09
2023-03-31T16:46:24.269Z,98571.63
2023-03-31T16:48:52.983Z,98576.00
2023-03-31T16:51:20.985Z,98569.84
2023-03-31T16:53:48.498Z,98565.47
2023-03-31T16:56:15.842Z,98557.56
2023-03-31T16:58:43.788Z,98556.66
2023-03-31T17:01:13.251Z,98563.72
2023-03-31T17:03:42.109Z,98562.88
2023-03-31T17:06:13.181Z,98562.88
2023-03-31T17:08:40.724Z,98553.19
2023-03-31T17:11:12.580Z,98558.44
2023-03-31T17:13:42.183Z,98558.44
2023-03-31T17:16:20.409Z,98547.84
2023-03-31T17:18:52.946Z,98545.22
2023-03-31T17:21:20.650Z,98539.91
2023-03-31T17:23:48.002Z,98541.72
2023-03-31T17:26:15.663Z,98546.97
2023-03-31T17:28:43.505Z,98543.41
2023-03-31T17:31:18.929Z,98545.19
2023-03-31T17:33:46.771Z,98564.59
2023-03-31T17:36:15.502Z,98598.16
2023-03-31T17:38:42.784Z,98603.47
2023-03-31T17:41:17.723Z,98595.53
2023-03-31T17:43:46.988Z,98586.72
2023-03-31T17:46:14.258Z,98588.50
2023-03-31T17:48:42.189Z,98584.97
2023-03-31T17:51:20.419Z,98584.94
2023-03-31T17:53:48.245Z,98592.00
2023-03-31T17:56:16.716Z,98574.34
2023-03-31T17:58:44.272Z,98583.19
2023-03-31T18:01:12.695Z,98586.69
2023-03-31T18:03:41.262Z,98580.50
2023-03-31T18:06:12.621Z,98589.31
2023-03-31T18:08:41.759Z,98591.06
2023-03-31T18:11:09.880Z,98575.22
2023-03-31T18:13:38.008Z,98578.78
2023-03-31T18:16:09.608Z,98574.38
2023-03-31T18:18:37.913Z,98572.59
2023-03-31T18:21:07.949Z,98566.44
2023-03-31T18:23:36.907Z,98558.50
2023-03-31T18:26:12.363Z,98554.97
2023-03-31T18:28:40.919Z,98558.47
2023-03-31T18:31:10.018Z,98558.50
2023-03-31T18:33:37.566Z,98560.25
2023-03-31T18:36:07.131Z,98562.00
2023-03-31T18:38:36.918Z,98560.25
2023-03-31T18:41:04.379Z,98553.22
2023-03-31T18:43:33.336Z,98546.16
2023-03-31T18:46:01.385Z,98551.44
2023-03-31T18:48:29.267Z,98546.16
2023-03-31T18:50:56.602Z,98542.63
2023-03-31T18:53:25.197Z,98541.75
2023-03-31T18:55:58.629Z,98541.75
2023-03-31T18:58:28.835Z,98532.06
2023-03-31T19:00:57.937Z,98516.22
2023-03-31T19:03:26.772Z,98532.06
2023-03-31T19:06:05.585Z,98525.03
2023-03-31T19:08:32.950Z,98523.25
2023-03-31T19:11:12.737Z,98519.72
2023-03-31T19:13:42.911Z,98509.13
2023-03-31T19:16:14.434Z,98514.44
2023-03-31T19:18:42.319Z,98504.75
2023-03-31T19:21:10.153Z,98505.63
2023-03-31T19:23:37.166Z,98491.53
2023-03-31T19:26:05.003Z,98510.03
2023-03-31T19:28:32.413Z,98498.59
2023-03-31T19:31:02.784Z,98493.31
2023-03-31T19:33:29.864Z,98488.88
2023-03-31T19:35:57.884Z,98491.53
2023-03-31T19:38:31.918Z,98492.41
2023-03-31T19:41:00.183Z,98493.28
2023-03-31T19:43:28.698Z,98482.72
2023-03-31T19:45:58.010Z,98487.13
2023-03-31T19:48:26.631Z,98480.09
2023-03-31T19:51:04.266Z,98476.56
2023-03-31T19:53:32.191Z,98467.75
2023-03-31T19:56:08.037Z,98467.75
2023-03-31T19:58:36.595Z,98465.09
2023-03-31T20:01:20.454Z,98461.59
2023-03-31T20:03:53.026Z,98460.69
2023-03-31T20:06:23.912Z,98446.59
2023-03-31T20:08:57.363Z,98451.91
2023-03-31T20:11:26.229Z,98439.56
2023-03-31T20:13:53.872Z,98445.72
2023-03-31T20:16:24.556Z,98437.81
2023-03-31T20:18:57.611Z,98454.53
2023-03-31T20:21:28.647Z,98451.00
2023-03-31T20:23:57.290Z,98452.75
2023-03-31T20:26:30.125Z,98451.88
2023-03-31T20:29:01.812Z,98452.75
2023-03-31T20:31:32.670Z,98447.50
2023-03-31T20:33:59.911Z,98446.59
2023-03-31T20:36:31.601Z,98450.13
2023-03-31T20:39:00.854Z,98442.22
2023-03-31T20:41:30.661Z,98442.22
2023-03-31T20:43:58.217Z,98434.28
2023-03-31T20:46:25.553Z,98431.63
2023-03-31T20:48:55.976Z,98430.75
2023-03-31T20:51:29.980Z,98416.69
2023-03-31T20:53:59.128Z,98422.81
2023-03-31T20:56:31.957Z,98416.66
2023-03-31T20:59:00.158Z,98421.97
2023-03-31T21:01:30.160Z,98423.72
2023-03-31T21:04:00.992Z,98414.00
2023-03-31T21:06:32.805Z,98404.34
2023-03-31T21:09:00.078Z,98397.28
2023-03-31T21:11:28.290Z,98401.69
2023-03-31T21:13:55.746Z,98406.09
2023-03-31T21:16:23.815Z,98408.72
2023-03-31T21:18:59.895Z,98406.06
2023-03-31T21:21:29.024Z,98404.28
2023-03-31T21:23:56.402Z,98413.09
2023-03-31T21:26:24.969Z,98408.69
2023-03-31T21:28:56.587Z,98403.41
2023-03-31T21:31:25.805Z,98394.59
2023-03-31T21:33:56.401Z,98393.72
2023-03-31T21:36:25.131Z,98399.00
2023-03-31T21:38:56.870Z,98400.78
2023-03-31T21:41:30.461Z,98397.22
2023-03-31T21:44:00.456Z,98400.78
2023-03-31T21:46:31.190Z,98390.22
2023-03-31T21:48:58.374Z,98376.97
2023-03-31T21:51:25.918Z,98389.34
2023-03-31T21:53:55.637Z,98386.72
2023-03-31T21:56:32.105Z,98385.81
2023-03-31T21:59:00.344Z,98389.34
2023-03-31T22:01:27.892Z,98383.16
2023-03-31T22:03:54.946Z,98388.44
2023-03-31T22:06:22.541Z,98388.44
2023-03-31T22:08:49.620Z,98378.75
2023-03-31T22:11:16.971Z,98380.50
2023-03-31T22:13:44.075Z,98383.16
2023-03-31T22:16:21.482Z,98376.09
2023-03-31T22:18:50.485Z,98376.03
2023-03-31T22:21:27.766Z,98384.88
2023-03-31T22:23:59.272Z,98380.50
2023-03-31T22:26:28.692Z,98371.63
2023-03-31T22:28:56.225Z,98381.38
2023-03-31T22:31:23.688Z,98375.22
2023-03-31T22:33:53.088Z,98380.44
2023-03-31T22:36:20.801Z,98380.50
2023-03-31T22:38:47.869Z,98378.72
2023-03-31T22:41:14.966Z,98372.56
2023-03-31T22:43:44.579Z,98378.72
2023-03-31T22:46:13.602Z,98377.78
2023-03-31T22:48:40.714Z,98379.66
2023-03-31T22:51:08.901Z,98377.88
2023-03-31T22:53:36.093Z,98377.88
2023-03-31T22:56:10.666Z,98376.16
2023-03-31T22:58:38.552Z,98361.13
2023-03-31T23:01:07.149Z,98368.13
2023-03-31T23:03:34.431Z,98366.44
2023-03-31T23:06:06.265Z,98369.97
2023-03-31T23:08:35.751Z,98362.06
2023-03-31T23:11:06.424Z,98360.28
2023-03-31T23:13:34.340Z,98354.16
2023-03-31T23:16:27.210Z,98355.00
2023-03-31T23:18:55.936Z,98351.50
2023-03-31T23:21:27.117Z,98358.53
2023-03-31T23:23:58.658Z,98345.31
2023-03-31T23:26:27.931Z,98355.00
2023-03-31T23:28:55.966Z,98355.03
2023-03-31T23:31:29.607Z,98350.59
2023-03-31T23:33:59.030Z,98355.00
2023-03-31T23:36:27.156Z,98349.75
2023-03-31T23:38:56.338Z,98342.69
2023-03-31T23:41:24.362Z,98346.22
2023-03-31T23:43:51.497Z,98346.22
2023-03-31T23:46:18.651Z,98340.06
2023-03-31T23:48:46.311Z,98350.63
2023-03-31T23:51:13.491Z,98346.22
2023-03-31T23:53:40.871Z,98348.84
2023-03-31T23:56:11.910Z,98342.69
2023-03-31T23:58:40.723Z,98340.94
